Time,TemperatureF,DewpointF,PressureIn,WindDirection,WindDirectionDegrees,WindSpeedMPH,WindSpeedGustMPH,Humidity,HourlyPrecipIn,Conditions,Clouds,dailyrainin,SoftwareType,DateUTC
2013-04-11 00:03:00,45.0,44.0,29.86,ENE,64,8.0,12.0,96,0.07,,,0.80,,2013-04-11 04:03:00,
2013-04-11 00:13:00,45.0,44.0,29.81,ENE,65,13.0,18.0,96,0.11,,,0.85,,2013-04-11 04:13:00,
2013-04-11 00:23:00,45.0,44.0,29.81,ENE,65,13.0,18.0,96,0.11,,,0.85,,2013-04-11 04:23:00,
2013-04-11 00:33:00,44.0,43.0,29.81,NE,54,12.0,24.0,96,0.16,,,0.92,,2013-04-11 04:33:00,
2013-04-11 00:43:00,44.0,43.0,29.81,NE,54,12.0,24.0,96,0.16,,,0.92,,2013-04-11 04:43:00,
2013-04-11 00:52:00,44.0,43.0,29.83,ENE,68,13.0,20.0,96,0.17,,,0.95,,2013-04-11 04:52:00,
2013-04-11 01:03:00,44.0,43.0,29.80,ENE,72,14.0,20.0,96,0.17,,,0.97,,2013-04-11 05:03:00,
2013-04-11 01:13:00,44.0,43.0,29.80,ENE,72,14.0,20.0,96,0.17,,,0.97,,2013-04-11 05:13:00,
2013-04-11 01:23:00,45.0,44.0,29.85,East,101,8.0,17.0,96,0.16,,,1.01,,2013-04-11 05:23:00,
2013-04-11 01:32:00,44.0,43.0,29.83,ENE,58,10.0,14.0,96,0.39,,,1.31,,2013-04-11 05:32:00,
2013-04-11 01:42:00,44.0,43.0,29.83,ENE,58,10.0,14.0,96,0.39,,,1.31,,2013-04-11 05:42:00,
2013-04-11 01:52:00,44.0,43.0,29.84,NE,39,7.0,15.0,96,0.37,,,1.32,,2013-04-11 05:52:00,
2013-04-11 02:02:00,44.0,43.0,29.83,ENE,61,9.0,15.0,96,0.35,,,1.32,,2013-04-11 06:02:00,
2013-04-11 02:12:00,44.0,43.0,29.83,ENE,61,9.0,15.0,96,0.35,,,1.32,,2013-04-11 06:12:00,
2013-04-11 02:22:00,44.0,43.0,29.80,NE,49,12.0,18.0,95,0.31,,,1.32,,2013-04-11 06:22:00,
2013-04-11 02:32:00,43.0,42.0,29.80,NE,43,11.0,18.0,95,0.01,,,1.32,,2013-04-11 06:32:00,
2013-04-11 02:42:00,43.0,42.0,29.80,NE,43,11.0,18.0,95,0.01,,,1.32,,2013-04-11 06:42:00,
2013-04-11 02:52:00,43.0,42.0,29.81,ENE,69,13.0,19.0,95,0.00,,,1.32,,2013-04-11 06:52:00,
2013-04-11 03:02:00,43.0,42.0,29.80,NE,41,13.0,19.0,95,0.00,,,1.32,,2013-04-11 07:02:00,
2013-04-11 03:12:00,43.0,42.0,29.80,NE,41,13.0,19.0,95,0.00,,,1.32,,2013-04-11 07:12:00,
2013-04-11 03:22:00,42.0,41.0,29.79,NNE,25,13.0,23.0,95,0.00,,,1.32,,2013-04-11 07:22:00,
2013-04-11 03:32:00,42.0,41.0,29.78,ENE,58,12.0,25.0,95,0.00,,,1.32,,2013-04-11 07:32:00,
2013-04-11 03:43:00,42.0,41.0,29.78,ENE,58,12.0,25.0,95,0.00,,,1.32,,2013-04-11 07:43:00,
2013-04-11 03:52:00,42.0,41.0,29.76,NE,43,15.0,22.0,95,0.00,,,1.32,,2013-04-11 07:52:00,
2013-04-11 04:03:00,42.0,41.0,29.75,ENE,57,11.0,22.0,95,0.00,,,1.32,,2013-04-11 08:03:00,
2013-04-11 04:12:00,42.0,41.0,29.75,ENE,57,11.0,22.0,95,0.00,,,1.32,,2013-04-11 08:12:00,
2013-04-11 04:22:00,42.0,41.0,29.75,ENE,64,16.0,23.0,96,0.00,,,1.32,,2013-04-11 08:22:00,
2013-04-11 04:32:00,42.0,41.0,29.87,NNW,335,8.0,29.0,96,0.00,,,1.31,,2013-04-11 08:32:00,
2013-04-11 04:42:00,42.0,41.0,29.87,NNW,335,8.0,29.0,96,0.00,,,1.31,,2013-04-11 08:42:00,
2013-04-11 04:52:00,42.0,41.0,29.83,West,267,9.0,19.0,96,0.02,,,1.33,,2013-04-11 08:52:00,
2013-04-11 05:02:00,42.0,41.0,29.90,NNW,347,4.0,9.0,96,0.13,,,1.44,,2013-04-11 09:02:00,
2013-04-11 05:12:00,42.0,41.0,29.90,NNW,347,4.0,9.0,96,0.13,,,1.44,,2013-04-11 09:12:00,
2013-04-11 05:22:00,42.0,41.0,29.87,NE,51,5.0,9.0,96,0.22,,,1.53,,2013-04-11 09:22:00,
2013-04-11 05:33:00,42.0,41.0,29.86,NE,49,10.0,20.0,96,0.30,,,1.61,,2013-04-11 09:33:00,
2013-04-11 05:43:00,42.0,41.0,29.86,NE,49,10.0,20.0,96,0.30,,,1.61,,2013-04-11 09:43:00,
2013-04-11 05:53:00,42.0,41.0,29.83,ENE,61,10.0,13.0,96,0.30,,,1.63,,2013-04-11 09:53:00,
2013-04-11 06:03:00,42.0,41.0,29.81,ENE,65,10.0,16.0,96,0.21,,,1.65,,2013-04-11 10:03:00,
2013-04-11 06:13:00,42.0,41.0,29.79,ENE,61,12.0,21.0,96,0.13,,,1.66,,2013-04-11 10:13:00,
2013-04-11 06:23:00,42.0,41.0,29.79,ENE,61,12.0,21.0,96,0.13,,,1.66,,2013-04-11 10:23:00,
2013-04-11 06:32:00,42.0,41.0,29.78,NE,56,17.0,22.0,95,0.06,,,1.67,,2013-04-11 10:32:00,
2013-04-11 06:42:00,42.0,41.0,29.78,NE,56,17.0,22.0,95,0.06,,,1.67,,2013-04-11 10:42:00,
2013-04-11 06:52:00,42.0,41.0,29.77,East,89,14.0,18.0,95,0.05,,,1.68,,2013-04-11 10:52:00,
2013-04-11 07:03:00,42.0,41.0,29.77,East,89,14.0,18.0,95,0.05,,,1.68,,2013-04-11 11:03:00,
2013-04-11 07:13:00,42.0,41.0,29.77,ENE,63,11.0,16.0,95,0.04,,,1.69,,2013-04-11 11:13:00,
2013-04-11 07:23:00,42.0,41.0,29.78,ENE,74,14.0,18.0,95,0.04,,,1.70,,2013-04-11 11:23:00,
2013-04-11 07:32:00,42.0,41.0,29.78,ENE,65,13.0,20.0,95,0.03,,,1.70,,2013-04-11 11:32:00,
2013-04-11 07:43:00,42.0,41.0,29.78,ENE,65,13.0,20.0,95,0.03,,,1.70,,2013-04-11 11:43:00,
2013-04-11 07:52:00,42.0,41.0,29.80,ENE,64,10.0,15.0,95,0.04,,,1.72,,2013-04-11 11:52:00,
2013-04-11 08:02:00,42.0,41.0,29.80,ENE,58,9.0,14.0,95,0.05,,,1.74,,2013-04-11 12:02:00,
2013-04-11 08:13:00,42.0,41.0,29.80,ENE,58,9.0,14.0,95,0.05,,,1.74,,2013-04-11 12:13:00,
2013-04-11 08:23:00,42.0,41.0,29.80,ENE,58,8.0,15.0,96,0.04,,,1.74,,2013-04-11 12:23:00,
2013-04-11 08:32:00,42.0,41.0,29.80,ENE,68,10.0,17.0,96,0.05,,,1.75,,2013-04-11 12:32:00,
2013-04-11 08:43:00,42.0,41.0,29.80,ENE,68,10.0,17.0,96,0.05,,,1.75,,2013-04-11 12:43:00,
2013-04-11 08:52:00,42.0,41.0,29.78,ENE,67,11.0,18.0,96,0.04,,,1.76,,2013-04-11 12:52:00,
2013-04-11 09:02:00,42.0,41.0,29.80,ENE,58,11.0,14.0,96,0.02,,,1.76,,2013-04-11 13:02:00,
2013-04-11 09:13:00,42.0,41.0,29.79,NE,47,10.0,18.0,96,0.02,,,1.76,,2013-04-11 13:13:00,
2013-04-11 09:23:00,42.0,41.0,29.79,NE,47,10.0,18.0,96,0.02,,,1.76,,2013-04-11 13:23:00,
2013-04-11 09:32:00,42.0,41.0,29.80,ENE,64,8.0,14.0,96,0.01,,,1.76,,2013-04-11 13:32:00,
2013-04-11 09:43:00,42.0,41.0,29.80,ENE,64,8.0,14.0,96,0.01,,,1.76,,2013-04-11 13:43:00,
2013-04-11 09:53:00,42.0,41.0,29.78,ENE,65,13.0,22.0,96,0.00,,,1.76,,2013-04-11 13:53:00,
2013-04-11 10:03:00,42.0,41.0,29.78,NE,51,12.0,19.0,96,0.00,,,1.76,,2013-04-11 14:03:00,
2013-04-11 10:13:00,42.0,41.0,29.78,NE,51,12.0,19.0,96,0.00,,,1.76,,2013-04-11 14:13:00,
2013-04-11 10:22:00,42.0,41.0,29.77,NE,56,14.0,20.0,95,0.00,,,1.76,,2013-04-11 14:22:00,
2013-04-11 10:33:00,42.0,41.0,29.75,NE,49,12.0,23.0,96,0.00,,,1.76,,2013-04-11 14:33:00,
2013-04-11 10:42:00,42.0,41.0,29.75,NE,49,12.0,23.0,96,0.00,,,1.76,,2013-04-11 14:42:00,
2013-04-11 10:52:00,42.0,41.0,29.75,NE,56,15.0,22.0,95,0.00,,,1.76,,2013-04-11 14:52:00,
2013-04-11 11:02:00,42.0,41.0,29.76,NE,53,11.0,22.0,95,0.00,,,1.76,,2013-04-11 15:02:00,
2013-04-11 11:12:00,42.0,41.0,29.76,NE,53,11.0,22.0,95,0.00,,,1.76,,2013-04-11 15:12:00,
2013-04-11 11:22:00,42.0,41.0,29.78,NE,44,11.0,18.0,95,0.00,,,1.76,,2013-04-11 15:22:00,
2013-04-11 11:32:00,42.0,41.0,29.79,NE,41,12.0,19.0,95,0.00,,,1.75,,2013-04-11 15:32:00,
2013-04-11 11:43:00,42.0,41.0,29.79,NE,41,12.0,19.0,95,0.00,,,1.75,,2013-04-11 15:43:00,
2013-04-11 12:02:00,42.0,41.0,29.78,NE,52,14.0,20.0,95,0.00,,,1.75,,2013-04-11 16:02:00,
2013-04-11 12:13:00,42.0,41.0,29.78,NE,52,14.0,20.0,95,0.00,,,1.75,,2013-04-11 16:13:00,
2013-04-11 12:23:00,42.0,41.0,29.79,ENE,64,11.0,24.0,96,0.00,,,1.75,,2013-04-11 16:23:00,
2013-04-11 12:32:00,42.0,41.0,29.78,ENE,60,12.0,17.0,96,0.00,,,1.75,,2013-04-11 16:32:00,
2013-04-11 12:42:00,42.0,41.0,29.78,ENE,60,12.0,17.0,96,0.00,,,1.75,,2013-04-11 16:42:00,
2013-04-11 12:52:00,42.0,41.0,29.80,NE,56,12.0,22.0,96,0.00,,,1.75,,2013-04-11 16:52:00,
2013-04-11 13:03:00,42.0,41.0,29.77,ENE,68,11.0,24.0,96,0.00,,,1.75,,2013-04-11 17:03:00,
2013-04-11 13:13:00,42.0,41.0,29.77,ENE,68,11.0,24.0,96,0.00,,,1.75,,2013-04-11 17:13:00,
2013-04-11 13:23:00,42.0,41.0,29.77,ENE,58,18.0,22.0,96,0.00,,,1.75,,2013-04-11 17:23:00,
2013-04-11 13:33:00,42.0,41.0,29.78,ENE,68,18.0,26.0,96,0.00,,,1.75,,2013-04-11 17:33:00,
2013-04-11 13:43:00,42.0,41.0,29.78,ENE,68,18.0,26.0,96,0.00,,,1.75,,2013-04-11 17:43:00,
2013-04-11 13:52:00,42.0,41.0,29.78,ENE,75,15.0,24.0,96,0.00,,,1.75,,2013-04-11 17:52:00,
2013-04-11 14:03:00,42.0,41.0,29.78,NE,46,15.0,22.0,96,0.00,,,1.75,,2013-04-11 18:03:00,
2013-04-11 14:13:00,42.0,41.0,29.78,NE,46,15.0,22.0,96,0.00,,,1.75,,2013-04-11 18:13:00,
2013-04-11 14:23:00,42.0,41.0,29.76,NE,46,12.0,22.0,97,0.00,,,1.75,,2013-04-11 18:23:00,
2013-04-11 14:33:00,42.0,41.0,29.75,ENE,71,17.0,24.0,97,0.00,,,1.75,,2013-04-11 18:33:00,
2013-04-11 14:43:00,42.0,41.0,29.75,ENE,71,17.0,24.0,97,0.00,,,1.75,,2013-04-11 18:43:00,
2013-04-11 14:52:00,41.0,40.0,29.75,ENE,72,11.0,18.0,97,0.00,,,1.75,,2013-04-11 18:52:00,
2013-04-11 15:04:00,41.0,40.0,29.75,ENE,67,11.0,21.0,97,0.00,,,1.75,,2013-04-11 19:04:00,
2013-04-11 15:14:00,41.0,40.0,29.75,ENE,67,11.0,21.0,97,0.00,,,1.75,,2013-04-11 19:14:00,
2013-04-11 15:22:00,41.0,40.0,29.74,NE,46,19.0,24.0,97,0.00,,,1.75,,2013-04-11 19:22:00,
2013-04-11 15:33:00,41.0,40.0,29.74,ENE,71,10.0,18.0,98,0.00,,,1.62,,2013-04-11 19:33:00,
2013-04-11 15:43:00,41.0,40.0,29.74,ENE,71,10.0,18.0,98,0.00,,,1.62,,2013-04-11 19:43:00,
2013-04-11 15:53:00,41.0,40.0,29.73,ENE,72,15.0,21.0,98,0.00,,,1.62,,2013-04-11 19:53:00,
2013-04-11 16:03:00,41.0,40.0,29.72,ENE,74,19.0,26.0,97,0.00,,,1.62,,2013-04-11 20:03:00,
2013-04-11 16:13:00,41.0,40.0,29.72,ENE,74,19.0,26.0,97,0.00,,,1.62,,2013-04-11 20:13:00,
2013-04-11 16:22:00,41.0,40.0,29.72,ENE,66,18.0,22.0,98,0.00,,,1.62,,2013-04-11 20:22:00,
2013-04-11 16:33:00,41.0,40.0,29.70,NE,51,13.0,21.0,98,0.00,,,1.60,,2013-04-11 20:33:00,
2013-04-11 16:43:00,41.0,40.0,29.70,NE,51,13.0,21.0,98,0.00,,,1.60,,2013-04-11 20:43:00,
2013-04-11 16:52:00,41.0,40.0,29.70,ENE,63,17.0,28.0,98,0.00,,,1.60,,2013-04-11 20:52:00,
2013-04-11 17:03:00,41.0,40.0,29.70,ENE,57,10.0,23.0,98,0.01,,,1.61,,2013-04-11 21:03:00,
2013-04-11 17:13:00,41.0,40.0,29.70,ENE,57,10.0,23.0,98,0.01,,,1.61,,2013-04-11 21:13:00,
2013-04-11 17:22:00,40.0,39.0,29.69,ENE,68,16.0,23.0,98,0.01,,,1.61,,2013-04-11 21:22:00,
2013-04-11 17:33:00,40.0,39.0,29.69,ENE,69,11.0,20.0,98,0.01,,,1.61,,2013-04-11 21:33:00,
2013-04-11 17:43:00,40.0,39.0,29.69,ENE,69,11.0,20.0,98,0.01,,,1.61,,2013-04-11 21:43:00,
2013-04-11 17:53:00,40.0,39.0,29.69,ENE,75,14.0,21.0,98,0.01,,,1.61,,2013-04-11 21:53:00,
2013-04-11 18:03:00,40.0,39.0,29.68,ENE,68,16.0,22.0,98,0.00,,,1.61,,2013-04-11 22:03:00,
2013-04-11 18:13:00,40.0,39.0,29.68,ENE,68,16.0,22.0,98,0.00,,,1.61,,2013-04-11 22:13:00,
2013-04-11 18:23:00,40.0,39.0,29.67,ENE,58,16.0,21.0,98,0.01,,,1.62,,2013-04-11 22:23:00,
2013-04-11 18:33:00,40.0,39.0,29.67,NE,41,11.0,24.0,98,0.01,,,1.41,,2013-04-11 22:33:00,
2013-04-11 18:44:00,40.0,39.0,29.67,NE,41,11.0,24.0,98,0.01,,,1.41,,2013-04-11 22:44:00,
2013-04-11 18:53:00,40.0,39.0,29.67,NE,56,13.0,20.0,97,0.02,,,1.42,,2013-04-11 22:53:00,
2013-04-11 19:04:00,40.0,39.0,29.66,ENE,58,11.0,17.0,97,0.03,,,1.43,,2013-04-11 23:04:00,
2013-04-11 19:13:00,40.0,39.0,29.66,ENE,58,11.0,17.0,97,0.03,,,1.43,,2013-04-11 23:13:00,
2013-04-11 19:23:00,40.0,39.0,29.65,NE,54,13.0,20.0,97,0.03,,,1.44,,2013-04-11 23:23:00,
2013-04-11 19:33:00,40.0,39.0,29.65,NNE,25,11.0,17.0,97,0.03,,,1.35,,2013-04-11 23:33:00,
2013-04-11 19:43:00,40.0,39.0,29.65,NNE,25,11.0,17.0,97,0.03,,,1.35,,2013-04-11 23:43:00,
2013-04-11 19:53:00,40.0,39.0,29.65,ENE,64,10.0,14.0,97,0.02,,,1.35,,2013-04-11 23:53:00,
2013-04-11 20:02:00,40.0,39.0,29.64,NE,47,11.0,16.0,97,0.01,,,1.35,,2013-04-12 00:02:00,
2013-04-11 20:12:00,40.0,39.0,29.64,NE,47,11.0,16.0,97,0.01,,,1.35,,2013-04-12 00:12:00,
2013-04-11 20:22:00,40.0,39.0,29.64,NNE,14,9.0,15.0,97,0.01,,,1.36,,2013-04-12 00:22:00,
2013-04-11 20:33:00,40.0,39.0,29.63,ENE,58,8.0,14.0,97,0.03,,,1.38,,2013-04-12 00:33:00,
2013-04-11 20:42:00,40.0,39.0,29.63,ENE,58,8.0,14.0,97,0.03,,,1.38,,2013-04-12 00:42:00,
2013-04-11 20:52:00,40.0,39.0,29.63,NE,43,9.0,14.0,97,0.05,,,1.40,,2013-04-12 00:52:00,
2013-04-11 21:02:00,40.0,39.0,29.64,ENE,71,9.0,14.0,97,0.06,,,1.41,,2013-04-12 01:02:00,
2013-04-11 21:12:00,40.0,39.0,29.64,ENE,71,9.0,14.0,97,0.06,,,1.41,,2013-04-12 01:12:00,
2013-04-11 21:22:00,40.0,39.0,29.64,ENE,57,7.0,17.0,97,0.08,,,1.44,,2013-04-12 01:22:00,
2013-04-11 21:32:00,40.0,39.0,29.62,ENE,69,8.0,15.0,97,0.08,,,1.42,,2013-04-12 01:32:00,
2013-04-11 21:42:00,40.0,39.0,29.62,ENE,69,8.0,15.0,97,0.08,,,1.42,,2013-04-12 01:42:00,
2013-04-11 21:52:00,40.0,39.0,29.60,ENE,65,8.0,14.0,97,0.09,,,1.45,,2013-04-12 01:52:00,
2013-04-11 22:03:00,40.0,39.0,29.59,ENE,62,14.0,19.0,97,0.11,,,1.48,,2013-04-12 02:03:00,
2013-04-11 22:12:00,40.0,39.0,29.59,ENE,62,14.0,19.0,97,0.11,,,1.48,,2013-04-12 02:12:00,
2013-04-11 22:22:00,40.0,39.0,29.56,NE,54,19.0,26.0,97,0.11,,,1.51,,2013-04-12 02:22:00,
2013-04-11 22:32:00,40.0,39.0,29.54,NE,56,17.0,27.0,97,0.10,,,1.37,,2013-04-12 02:32:00,
2013-04-11 22:42:00,40.0,39.0,29.54,NE,56,17.0,27.0,97,0.10,,,1.37,,2013-04-12 02:42:00,
2013-04-11 22:52:00,40.0,39.0,29.60,NNE,27,5.0,14.0,97,0.08,,,1.37,,2013-04-12 02:52:00,
2013-04-11 23:02:00,40.0,39.0,29.58,ENE,58,5.0,8.0,97,0.05,,,1.37,,2013-04-12 03:02:00,
2013-04-11 23:12:00,40.0,39.0,29.58,ENE,58,5.0,8.0,97,0.05,,,1.37,,2013-04-12 03:12:00,
2013-04-11 23:22:00,40.0,39.0,29.58,ENE,58,5.0,8.0,97,0.05,,,1.37,,2013-04-12 03:22:00,
2013-04-11 23:33:00,40.0,39.0,29.57,NE,56,5.0,11.0,97,0.01,,,1.31,,2013-04-12 03:33:00,
2013-04-11 23:43:00,40.0,39.0,29.57,NE,56,5.0,11.0,97,0.01,,,1.31,,2013-04-12 03:43:00,
2013-04-11 23:53:00,40.0,39.0,29.58,NNE,24,3.0,11.0,97,0.02,,,1.32,,2013-04-12 03:53:00,